Time;durP1;ratioP1;P1;durP2;ratioP2;P2;SDS_P1;SDS_P2;PMS_P1;PMS_P2;Temp;Humidity;BMP_temperature;BMP_pressure;BME280_temperature;BME280_humidity;BME280_pressure;Samples;Min_cycle;Max_cycle;Signal;HPM_P1;HPM_P2
2023/12/20 00:01:49;;;;;;;4.78;3.47;;;;;;;;;;5054277;28;20055;-70
2023/12/20 00:04:14;;;;;;;5.05;2.83;;;;;;;;;;5054204;28;20040;-71
2023/12/20 00:06:40;;;;;;;5.50;3.20;;;;;;;;;;5054261;28;20025;-71
2023/12/20 00:09:05;;;;;;;4.57;3.10;;;;;;;;;;5054466;28;20025;-70
2023/12/20 00:11:30;;;;;;;4.47;3.22;;;;;;;;;;5054277;28;20427;-69
2023/12/20 00:13:56;;;;;;;7.53;3.20;;;;;;;;;;5063062;28;20028;-69
2023/12/20 00:16:21;;;;;;;4.95;3.10;;;;;;;;;;5074252;28;20027;-69
2023/12/20 00:18:47;;;;;;;14.18;7.18;;;;;;;;;;5073893;28;20033;-69
2023/12/20 00:21:12;;;;;;;10.68;6.97;;;;;;;;;;5074071;28;20078;-69
2023/12/20 00:23:37;;;;;;;14.18;9.48;;;;;;;;;;5073852;28;20381;-69
2023/12/20 00:26:03;;;;;;;12.13;7.32;;;;;;;;;;5073870;28;20484;-69
2023/12/20 00:28:28;;;;;;;8.95;5.20;;;;;;;;;;5073832;28;20111;-69
2023/12/20 00:30:54;;;;;;;6.18;4.22;;;;;;;;;;5064606;28;20359;-70
2023/12/20 00:33:19;;;;;;;9.07;5.43;;;;;;;;;;5053766;28;20021;-69
2023/12/20 00:35:45;;;;;;;5.45;3.78;;;;;;;;;;5053746;28;20086;-69
2023/12/20 00:38:11;;;;;;;6.18;3.70;;;;;;;;;;5053762;28;20159;-68
2023/12/20 00:40:36;;;;;;;5.93;3.75;;;;;;;;;;5053552;28;20033;-69
2023/12/20 00:43:02;;;;;;;8.52;4.82;;;;;;;;;;5053624;28;20032;-69
2023/12/20 00:45:27;;;;;;;11.27;4.38;;;;;;;;;;5053716;28;20017;-70
2023/12/20 00:47:53;;;;;;;6.68;3.40;;;;;;;;;;5053095;28;20033;-69
2023/12/20 00:50:18;;;;;;;7.72;4.10;;;;;;;;;;5053412;28;20374;-70
2023/12/20 00:52:43;;;;;;;8.20;3.85;;;;;;;;;;5053442;28;20033;-70
2023/12/20 00:55:09;;;;;;;5.78;2.72;;;;;;;;;;5053366;28;20045;-70
2023/12/20 00:57:34;;;;;;;8.10;3.25;;;;;;;;;;5053379;28;20102;-69
2023/12/20 01:00:00;;;;;;;2.88;1.77;;;;;;;;;;5053288;28;20505;-69
2023/12/20 01:02:25;;;;;;;10.25;6.03;;;;;;;;;;5053102;28;20027;-69
2023/12/20 01:04:51;;;;;;;13.90;7.20;;;;;;;;;;5053305;28;20091;-69
2023/12/20 01:07:16;;;;;;;6.38;3.20;;;;;;;;;;5051922;28;20025;-70
2023/12/20 01:09:41;;;;;;;5.38;2.40;;;;;;;;;;5053056;28;20029;-70
2023/12/20 01:12:07;;;;;;;3.03;1.60;;;;;;;;;;5053011;28;20363;-70
2023/12/20 01:14:32;;;;;;;8.13;4.30;;;;;;;;;;5053015;28;20045;-70
2023/12/20 01:16:58;;;;;;;3.03;2.03;;;;;;;;;;5052344;28;20061;-69
2023/12/20 01:19:25;;;;;;;4.75;2.05;;;;;;;;;;5052985;28;20468;-70
2023/12/20 01:21:50;;;;;;;3.08;2.13;;;;;;;;;;5052816;28;20025;-70
2023/12/20 01:24:15;;;;;;;3.97;2.72;;;;;;;;;;5052893;28;20029;-69
2023/12/20 01:26:41;;;;;;;5.53;2.80;;;;;;;;;;5052857;28;20024;-69
2023/12/20 01:29:06;;;;;;;3.30;1.88;;;;;;;;;;5052826;28;20047;-69
2023/12/20 01:31:32;;;;;;;3.05;1.63;;;;;;;;;;5052330;28;20044;-69
2023/12/20 01:33:57;;;;;;;4.75;3.10;;;;;;;;;;5052733;28;20482;-69
2023/12/20 01:36:22;;;;;;;6.68;3.03;;;;;;;;;;5052838;28;20467;-70
2023/12/20 01:38:48;;;;;;;19.15;10.77;;;;;;;;;;5047930;28;20021;-69
2023/12/20 01:41:13;;;;;;;22.90;12.32;;;;;;;;;;5032718;28;20021;-69
2023/12/20 01:43:39;;;;;;;20.30;13.18;;;;;;;;;;5032621;28;20032;-69
2023/12/20 01:46:05;;;;;;;22.15;14.20;;;;;;;;;;5032458;28;20466;-69
2023/12/20 01:48:32;;;;;;;27.73;17.05;;;;;;;;;;5049746;28;20037;-70
2023/12/20 01:50:59;;;;;;;23.40;13.57;;;;;;;;;;5052591;28;20056;-70
2023/12/20 01:53:25;;;;;;;19.08;10.93;;;;;;;;;;5052381;28;20049;-68
2023/12/20 01:55:53;;;;;;;21.27;12.15;;;;;;;;;;5052646;28;20021;-69
2023/12/20 01:58:19;;;;;;;33.22;15.43;;;;;;;;;;5052559;28;20020;-70
2023/12/20 02:00:45;;;;;;;27.50;14.75;;;;;;;;;;5052216;28;20059;-69
2023/12/20 02:03:11;;;;;;;24.67;14.38;;;;;;;;;;5052591;28;20040;-70
2023/12/20 02:05:38;;;;;;;11.45;5.78;;;;;;;;;;5052309;28;20442;-69
2023/12/20 02:08:05;;;;;;;15.05;9.18;;;;;;;;;;5052459;28;20386;-70
2023/12/20 02:10:31;;;;;;;18.35;9.55;;;;;;;;;;5052305;28;20029;-70
2023/12/20 02:12:56;;;;;;;8.38;4.95;;;;;;;;;;5052429;28;20029;-70
2023/12/20 02:15:22;;;;;;;5.53;3.30;;;;;;;;;;5052223;28;20021;-70
2023/12/20 02:17:48;;;;;;;5.43;2.95;;;;;;;;;;5052162;28;20108;-69
2023/12/20 02:20:14;;;;;;;4.40;1.90;;;;;;;;;;5052273;28;20021;-70
2023/12/20 02:22:40;;;;;;;11.98;5.40;;;;;;;;;;5052263;28;20095;-69
2023/12/20 02:25:05;;;;;;;14.75;6.18;;;;;;;;;;5052456;28;20040;-70
2023/12/20 02:27:31;;;;;;;15.50;9.50;;;;;;;;;;5052181;28;20017;-70
2023/12/20 02:29:57;;;;;;;17.58;9.40;;;;;;;;;;5054511;28;20036;-69
2023/12/20 02:32:25;;;;;;;23.75;13.40;;;;;;;;;;5056126;28;20394;-69
2023/12/20 02:34:51;;;;;;;27.17;12.95;;;;;;;;;;5056117;28;20025;-69
2023/12/20 02:37:16;;;;;;;39.50;18.27;;;;;;;;;;5056175;28;20040;-70
2023/12/20 02:39:42;;;;;;;27.88;13.07;;;;;;;;;;5044827;28;20033;-69
2023/12/20 02:42:07;;;;;;;9.77;5.30;;;;;;;;;;5034757;28;20363;-69
2023/12/20 02:44:33;;;;;;;8.63;4.40;;;;;;;;;;5035848;28;20072;-69
2023/12/20 02:46:58;;;;;;;5.22;2.70;;;;;;;;;;5040339;28;20028;-69
2023/12/20 02:49:23;;;;;;;4.82;2.35;;;;;;;;;;5057040;28;20041;-69
2023/12/20 02:51:49;;;;;;;4.28;2.65;;;;;;;;;;5057510;28;20021;-69
2023/12/20 02:54:14;;;;;;;5.28;3.00;;;;;;;;;;5058310;28;20044;-70
2023/12/20 02:56:40;;;;;;;3.10;1.60;;;;;;;;;;5055701;28;20071;-70
2023/12/20 02:59:06;;;;;;;2.80;1.30;;;;;;;;;;5055505;28;20013;-70
2023/12/20 03:01:32;;;;;;;6.32;1.42;;;;;;;;;;5055531;28;20382;-69
2023/12/20 03:03:57;;;;;;;3.17;1.30;;;;;;;;;;5055596;28;20028;-70
2023/12/20 03:06:23;;;;;;;2.15;1.08;;;;;;;;;;5055549;28;20021;-70
2023/12/20 03:08:48;;;;;;;2.28;1.00;;;;;;;;;;5055318;28;20025;-70
2023/12/20 03:11:13;;;;;;;3.72;1.30;;;;;;;;;;5055387;28;20029;-69
2023/12/20 03:13:39;;;;;;;1.90;1.17;;;;;;;;;;5055023;28;20021;-70
2023/12/20 03:16:11;;;;;;;3.78;1.30;;;;;;;;;;5055437;28;20111;-70
2023/12/20 03:18:37;;;;;;;4.78;1.48;;;;;;;;;;5055409;28;20073;-69
2023/12/20 03:21:04;;;;;;;5.85;3.60;;;;;;;;;;5055356;28;20471;-70
2023/12/20 03:23:30;;;;;;;5.75;1.38;;;;;;;;;;5055248;28;20028;-70
2023/12/20 03:25:56;;;;;;;2.95;1.35;;;;;;;;;;5054886;28;20041;-69
2023/12/20 03:28:22;;;;;;;4.25;1.30;;;;;;;;;;5055072;28;20051;-69
2023/12/20 03:30:48;;;;;;;1.90;1.20;;;;;;;;;;5054827;28;20052;-69
2023/12/20 03:33:13;;;;;;;3.97;1.50;;;;;;;;;;5055074;28;20386;-69
2023/12/20 03:35:39;;;;;;;4.05;1.35;;;;;;;;;;5054938;28;20040;-70
2023/12/20 03:38:04;;;;;;;1.90;1.10;;;;;;;;;;5054960;28;20024;-70
2023/12/20 03:40:29;;;;;;;7.18;1.30;;;;;;;;;;5036536;28;20056;-69
2023/12/20 03:42:55;;;;;;;4.70;1.27;;;;;;;;;;5034836;28;20132;-69
2023/12/20 03:45:20;;;;;;;4.75;1.23;;;;;;;;;;5034845;28;20021;-69
2023/12/20 03:47:46;;;;;;;5.15;3.13;;;;;;;;;;5045437;28;20021;-69
2023/12/20 03:50:11;;;;;;;3.75;1.90;;;;;;;;;;5054575;28;20048;-69
2023/12/20 03:52:37;;;;;;;3.35;1.50;;;;;;;;;;5054689;28;20074;-69
2023/12/20 03:55:02;;;;;;;7.68;1.73;;;;;;;;;;5054336;28;20395;-70
2023/12/20 03:57:28;;;;;;;2.20;1.40;;;;;;;;;;5054556;28;20500;-69
2023/12/20 03:59:53;;;;;;;2.17;1.38;;;;;;;;;;5054374;28;20429;-69
2023/12/20 04:02:19;;;;;;;2.53;1.17;;;;;;;;;;5054533;28;20021;-69
2023/12/20 04:04:44;;;;;;;2.58;1.35;;;;;;;;;;5054476;28;20017;-68
2023/12/20 04:07:10;;;;;;;3.83;1.45;;;;;;;;;;5054437;28;20024;-68
2023/12/20 04:09:35;;;;;;;4.60;1.50;;;;;;;;;;5054009;28;20024;-69
2023/12/20 04:12:01;;;;;;;2.83;1.30;;;;;;;;;;5054180;28;20021;-68
2023/12/20 04:14:26;;;;;;;1.65;1.23;;;;;;;;;;5054304;28;20138;-69
2023/12/20 04:16:52;;;;;;;3.45;1.27;;;;;;;;;;5052965;28;20025;-69
2023/12/20 04:19:17;;;;;;;5.22;1.40;;;;;;;;;;5054159;28;20020;-68
2023/12/20 04:21:43;;;;;;;10.70;1.42;;;;;;;;;;5053943;28;20032;-69
2023/12/20 04:24:08;;;;;;;3.10;1.58;;;;;;;;;;5053593;28;20068;-68
2023/12/20 04:26:34;;;;;;;5.97;1.23;;;;;;;;;;5054054;28;20100;-69
2023/12/20 04:28:59;;;;;;;5.57;1.63;;;;;;;;;;5053862;28;20062;-69
2023/12/20 04:31:25;;;;;;;6.38;1.30;;;;;;;;;;5053842;28;20031;-69
2023/12/20 04:33:50;;;;;;;8.85;1.65;;;;;;;;;;5053717;28;20463;-69
2023/12/20 04:36:15;;;;;;;2.53;1.38;;;;;;;;;;5053810;28;20029;-69
2023/12/20 04:38:41;;;;;;;3.40;1.23;;;;;;;;;;5053350;28;20090;-68
2023/12/20 04:41:06;;;;;;;1.83;1.17;;;;;;;;;;5053471;28;20087;-69
2023/12/20 04:43:32;;;;;;;6.85;1.48;;;;;;;;;;5053968;28;20360;-68
2023/12/20 04:45:58;;;;;;;4.13;1.30;;;;;;;;;;5053588;28;20047;-69
2023/12/20 04:48:23;;;;;;;3.10;1.17;;;;;;;;;;5053415;28;20357;-69
2023/12/20 04:50:48;;;;;;;6.03;1.30;;;;;;;;;;5053260;28;20033;-68
2023/12/20 04:53:14;;;;;;;3.72;1.58;;;;;;;;;;5052495;28;20070;-69
2023/12/20 04:55:39;;;;;;;3.03;1.30;;;;;;;;;;5053275;28;20025;-69
2023/12/20 04:58:05;;;;;;;9.43;1.30;;;;;;;;;;5053114;28;20386;-69
2023/12/20 05:00:30;;;;;;;4.20;1.17;;;;;;;;;;5053359;28;20029;-68
2023/12/20 05:02:56;;;;;;;2.85;1.00;;;;;;;;;;5053381;28;20025;-69
2023/12/20 05:05:21;;;;;;;3.45;1.17;;;;;;;;;;5053158;28;20021;-69
2023/12/20 05:07:46;;;;;;;4.88;1.20;;;;;;;;;;5052818;28;20031;-69
2023/12/20 05:10:12;;;;;;;4.40;1.25;;;;;;;;;;5053166;28;20027;-69
2023/12/20 05:12:37;;;;;;;2.85;1.08;;;;;;;;;;5053031;28;20025;-69
2023/12/20 05:15:06;;;;;;;2.63;0.93;;;;;;;;;;5053188;28;20027;-69
2023/12/20 05:17:31;;;;;;;4.18;1.35;;;;;;;;;;5053281;28;20425;-69
2023/12/20 05:19:56;;;;;;;6.88;1.10;;;;;;;;;;5052946;28;20091;-69
2023/12/20 05:22:22;;;;;;;5.95;1.55;;;;;;;;;;5052837;28;20029;-69
2023/12/20 05:24:47;;;;;;;4.82;1.10;;;;;;;;;;5051474;28;20025;-69
2023/12/20 05:27:13;;;;;;;5.28;1.08;;;;;;;;;;5052779;28;20450;-69
2023/12/20 05:29:38;;;;;;;6.90;1.10;;;;;;;;;;5052679;28;20065;-68
2023/12/20 05:32:07;;;;;;;7.60;1.30;;;;;;;;;;5052614;28;20023;-69
2023/12/20 05:34:32;;;;;;;1.75;1.10;;;;;;;;;;5052821;28;20032;-69
2023/12/20 05:36:58;;;;;;;5.50;1.30;;;;;;;;;;5052450;28;20489;-69
2023/12/20 05:39:23;;;;;;;4.45;1.30;;;;;;;;;;5044179;28;20041;-69
2023/12/20 05:41:49;;;;;;;11.15;1.50;;;;;;;;;;5032648;28;20041;-69
2023/12/20 05:44:14;;;;;;;6.57;1.38;;;;;;;;;;5032745;28;20490;-68
2023/12/20 05:46:40;;;;;;;8.32;1.70;;;;;;;;;;5034561;28;20582;-69
2023/12/20 05:49:06;;;;;;;6.30;1.75;;;;;;;;;;5052552;28;20033;-69
2023/12/20 05:51:31;;;;;;;8.60;1.63;;;;;;;;;;5052414;28;20502;-68
2023/12/20 05:53:57;;;;;;;5.65;1.75;;;;;;;;;;5052163;28;20049;-69
2023/12/20 05:56:22;;;;;;;8.23;2.10;;;;;;;;;;5052412;28;20029;-69
2023/12/20 05:58:48;;;;;;;10.95;2.10;;;;;;;;;;5053078;28;20386;-70
2023/12/20 06:01:14;;;;;;;5.55;1.50;;;;;;;;;;5052464;28;20040;-70
2023/12/20 06:03:43;;;;;;;6.97;1.58;;;;;;;;;;5054602;28;20414;-70
2023/12/20 06:06:09;;;;;;;8.85;1.63;;;;;;;;;;5055068;28;20060;-70
2023/12/20 06:08:36;;;;;;;6.88;1.95;;;;;;;;;;5056492;28;20032;-70
2023/12/20 06:11:01;;;;;;;5.78;1.30;;;;;;;;;;5056295;28;20047;-69
2023/12/20 06:13:26;;;;;;;7.38;1.50;;;;;;;;;;5056458;28;20466;-69
2023/12/20 06:15:54;;;;;;;5.38;1.05;;;;;;;;;;5056414;28;20025;-69
2023/12/20 06:18:19;;;;;;;8.18;1.73;;;;;;;;;;5055969;28;20021;-69
2023/12/20 06:20:45;;;;;;;6.75;1.42;;;;;;;;;;5056173;28;20017;-69
2023/12/20 06:23:10;;;;;;;6.18;1.95;;;;;;;;;;5056205;28;20029;-69
2023/12/20 06:25:35;;;;;;;6.65;1.48;;;;;;;;;;5056169;28;20036;-69
2023/12/20 06:28:01;;;;;;;11.15;1.88;;;;;;;;;;5056200;28;20557;-69
2023/12/20 06:30:27;;;;;;;5.80;2.28;;;;;;;;;;5055852;28;20021;-69
2023/12/20 06:32:53;;;;;;;16.77;2.92;;;;;;;;;;5056084;28;20116;-69
2023/12/20 06:35:19;;;;;;;9.50;2.10;;;;;;;;;;5055795;28;20104;-69
2023/12/20 06:37:44;;;;;;;9.57;2.63;;;;;;;;;;5055923;28;20395;-69
2023/12/20 06:40:10;;;;;;;6.50;2.28;;;;;;;;;;5055802;28;20382;-68
2023/12/20 06:42:36;;;;;;;14.88;2.63;;;;;;;;;;5055991;28;20029;-68
2023/12/20 06:45:01;;;;;;;9.05;2.00;;;;;;;;;;5055867;28;20055;-68
2023/12/20 06:47:27;;;;;;;5.10;2.00;;;;;;;;;;5055752;28;20028;-68
2023/12/20 06:49:52;;;;;;;9.07;2.60;;;;;;;;;;5055368;28;20496;-70
2023/12/20 06:52:18;;;;;;;9.07;3.03;;;;;;;;;;5054130;28;20043;-69
2023/12/20 06:54:43;;;;;;;8.73;2.42;;;;;;;;;;5055598;28;20053;-69
2023/12/20 06:57:09;;;;;;;6.47;2.45;;;;;;;;;;5055947;28;20075;-68
2023/12/20 06:59:39;;;;;;;7.55;2.63;;;;;;;;;;5055403;28;20136;-68
2023/12/20 07:02:05;;;;;;;7.13;2.88;;;;;;;;;;5055643;28;20029;-68
2023/12/20 07:04:30;;;;;;;9.45;2.63;;;;;;;;;;5055411;28;20032;-68
2023/12/20 07:06:57;;;;;;;9.52;2.90;;;;;;;;;;5055580;28;20082;-69
2023/12/20 07:09:23;;;;;;;10.20;2.65;;;;;;;;;;5055118;28;20387;-69
2023/12/20 07:11:48;;;;;;;7.80;1.92;;;;;;;;;;5055348;28;20021;-69
2023/12/20 07:14:14;;;;;;;3.83;1.55;;;;;;;;;;5054612;28;20094;-69
2023/12/20 07:16:40;;;;;;;7.97;2.00;;;;;;;;;;5055218;28;20090;-69
2023/12/20 07:19:06;;;;;;;6.18;1.83;;;;;;;;;;5055034;28;20029;-69
2023/12/20 07:21:31;;;;;;;7.55;1.92;;;;;;;;;;5055125;28;20131;-69
2023/12/20 07:23:57;;;;;;;6.55;1.70;;;;;;;;;;5055076;28;20120;-70
2023/12/20 07:26:23;;;;;;;5.15;1.80;;;;;;;;;;5055364;28;20017;-70
2023/12/20 07:28:48;;;;;;;6.38;1.65;;;;;;;;;;5054928;28;20029;-70
2023/12/20 07:31:16;;;;;;;4.75;1.30;;;;;;;;;;5054642;28;20463;-70
2023/12/20 07:33:41;;;;;;;7.13;1.80;;;;;;;;;;5054658;28;20021;-70
2023/12/20 07:36:07;;;;;;;9.07;2.00;;;;;;;;;;5054997;28;20463;-68
2023/12/20 07:38:32;;;;;;;7.38;1.80;;;;;;;;;;5054615;28;20043;-69
2023/12/20 07:40:58;;;;;;;6.20;1.50;;;;;;;;;;5054868;28;20021;-68
2023/12/20 07:43:23;;;;;;;5.20;2.03;;;;;;;;;;5054861;28;20021;-68
2023/12/20 07:45:49;;;;;;;7.70;2.05;;;;;;;;;;5065402;28;20493;-68
2023/12/20 07:48:14;;;;;;;5.32;1.70;;;;;;;;;;5072064;28;20033;-68
2023/12/20 07:50:40;;;;;;;8.68;2.15;;;;;;;;;;5057461;28;20029;-69
2023/12/20 07:53:05;;;;;;;10.73;2.28;;;;;;;;;;5050464;28;20020;-69
2023/12/20 07:55:31;;;;;;;8.02;1.90;;;;;;;;;;5057105;28;20024;-69
2023/12/20 07:57:57;;;;;;;6.22;2.33;;;;;;;;;;5064592;28;20036;-68
2023/12/20 08:00:22;;;;;;;8.63;2.00;;;;;;;;;;5059644;28;20032;-69
2023/12/20 08:02:48;;;;;;;11.27;1.77;;;;;;;;;;5070254;28;20021;-69
2023/12/20 08:05:13;;;;;;;7.70;2.03;;;;;;;;;;5053914;28;20028;-69
2023/12/20 08:07:39;;;;;;;12.40;2.63;;;;;;;;;;5053960;28;20033;-69
2023/12/20 08:10:05;;;;;;;6.95;2.25;;;;;;;;;;5053775;28;20036;-69
2023/12/20 08:12:30;;;;;;;10.60;2.20;;;;;;;;;;5059854;28;20027;-69
2023/12/20 08:14:56;;;;;;;13.27;2.03;;;;;;;;;;5059351;28;20120;-69
2023/12/20 08:17:23;;;;;;;6.28;2.22;;;;;;;;;;5053830;28;20098;-69
2023/12/20 08:19:48;;;;;;;5.80;1.50;;;;;;;;;;5053984;28;20035;-68
2023/12/20 08:22:14;;;;;;;8.65;1.95;;;;;;;;;;5053892;28;20025;-69
2023/12/20 08:24:40;;;;;;;6.55;1.52;;;;;;;;;;5053722;28;20052;-69
2023/12/20 08:27:05;;;;;;;6.22;1.80;;;;;;;;;;5053659;28;20024;-69
2023/12/20 08:29:30;;;;;;;8.98;2.15;;;;;;;;;;5053710;28;20028;-69
2023/12/20 08:31:56;;;;;;;7.93;1.75;;;;;;;;;;5053460;28;20039;-69
2023/12/20 08:34:23;;;;;;;10.38;2.08;;;;;;;;;;5053770;28;20155;-69
2023/12/20 08:36:49;;;;;;;6.82;1.48;;;;;;;;;;5053654;28;20110;-70
2023/12/20 08:39:15;;;;;;;6.13;1.58;;;;;;;;;;5046284;28;20061;-69
2023/12/20 08:41:40;;;;;;;6.47;2.35;;;;;;;;;;5033539;28;20064;-69
2023/12/20 08:44:06;;;;;;;5.15;1.55;;;;;;;;;;5033644;28;20033;-69
2023/12/20 08:46:31;;;;;;;6.97;1.83;;;;;;;;;;5033475;28;20029;-69
2023/12/20 08:48:57;;;;;;;6.00;1.58;;;;;;;;;;5053035;28;20485;-69
2023/12/20 08:51:25;;;;;;;4.25;1.35;;;;;;;;;;5053265;28;20103;-69
2023/12/20 08:53:51;;;;;;;7.10;1.83;;;;;;;;;;5053074;28;20037;-69
2023/12/20 08:56:17;;;;;;;5.40;1.60;;;;;;;;;;5053310;28;20090;-69
2023/12/20 08:58:43;;;;;;;4.50;1.50;;;;;;;;;;5053432;28;20080;-69
2023/12/20 09:01:09;;;;;;;9.05;1.60;;;;;;;;;;5035607;28;20045;-69
2023/12/20 09:03:34;;;;;;;4.75;1.30;;;;;;;;;;5034086;28;20029;-69
2023/12/20 09:06:00;;;;;;;7.35;2.00;;;;;;;;;;5033153;28;20036;-68
2023/12/20 09:08:25;;;;;;;5.10;1.50;;;;;;;;;;5032953;28;20424;-68
2023/12/20 09:10:51;;;;;;;5.63;1.50;;;;;;;;;;5033113;28;20055;-68
2023/12/20 09:13:16;;;;;;;9.98;2.17;;;;;;;;;;5033048;28;20021;-68
2023/12/20 09:15:42;;;;;;;15.32;1.90;;;;;;;;;;5032674;28;20056;-68
2023/12/20 09:18:07;;;;;;;5.25;1.75;;;;;;;;;;5032967;28;20036;-68
2023/12/20 09:20:34;;;;;;;7.53;1.80;;;;;;;;;;5049307;28;20043;-68
2023/12/20 09:23:00;;;;;;;8.57;2.05;;;;;;;;;;5052775;28;20021;-68
2023/12/20 09:25:25;;;;;;;9.05;1.80;;;;;;;;;;5052804;28;20171;-68
2023/12/20 09:27:52;;;;;;;7.43;1.33;;;;;;;;;;5052405;28;20036;-68
2023/12/20 09:30:18;;;;;;;5.13;1.45;;;;;;;;;;5050441;28;20094;-68
2023/12/20 09:32:43;;;;;;;9.38;1.88;;;;;;;;;;5041941;28;20029;-68
2023/12/20 09:35:09;;;;;;;7.93;2.05;;;;;;;;;;5032881;28;20029;-68
2023/12/20 09:37:34;;;;;;;4.80;1.63;;;;;;;;;;5049234;28;20068;-68
2023/12/20 09:40:00;;;;;;;6.00;1.80;;;;;;;;;;5037596;28;20064;-68
2023/12/20 09:43:03;;;;;;;9.05;1.67;;;;;;;;;;5063953;28;20036;-68
2023/12/20 09:45:31;;;;;;;9.93;1.85;;;;;;;;;;5030004;28;20069;-68
2023/12/20 09:47:58;;;;;;;8.25;1.70;;;;;;;;;;5011858;28;20153;-68
2023/12/20 09:50:24;;;;;;;4.32;1.38;;;;;;;;;;5010651;28;20129;-68
2023/12/20 09:52:53;;;;;;;8.23;1.50;;;;;;;;;;5010761;28;20110;-68
2023/12/20 09:55:20;;;;;;;8.17;2.47;;;;;;;;;;5010582;28;20068;-68
2023/12/20 09:57:49;;;;;;;9.48;1.75;;;;;;;;;;5010399;28;20065;-68
2023/12/20 10:00:15;;;;;;;10.60;2.35;;;;;;;;;;4984284;28;20034;-68
2023/12/20 10:02:48;;;;;;;4.45;1.77;;;;;;;;;;4990899;28;20045;-68
2023/12/20 10:05:20;;;;;;;7.13;1.63;;;;;;;;;;4974629;28;20022;-68
2023/12/20 10:07:46;;;;;;;8.85;1.80;;;;;;;;;;4990753;28;20034;-68
2023/12/20 10:10:13;;;;;;;9.50;1.73;;;;;;;;;;4990514;28;20050;-68
2023/12/20 10:12:38;;;;;;;8.07;1.70;;;;;;;;;;4990727;28;20045;-68
2023/12/20 10:15:05;;;;;;;11.88;1.90;;;;;;;;;;4991000;28;20038;-68
2023/12/20 10:17:31;;;;;;;8.20;1.83;;;;;;;;;;4990809;28;20164;-68
2023/12/20 10:19:58;;;;;;;8.07;1.98;;;;;;;;;;4990643;28;20068;-68
2023/12/20 10:22:23;;;;;;;11.85;2.33;;;;;;;;;;5016930;28;20510;-68
2023/12/20 10:24:49;;;;;;;7.57;1.77;;;;;;;;;;5032045;28;20053;-68
2023/12/20 10:27:14;;;;;;;8.55;1.90;;;;;;;;;;5046326;28;20378;-68
2023/12/20 10:29:40;;;;;;;12.20;2.17;;;;;;;;;;5051912;28;20382;-67
2023/12/20 10:32:26;;;;;;;5.80;1.67;;;;;;;;;;5051981;28;20025;-69
2023/12/20 10:34:53;;;;;;;12.70;2.45;;;;;;;;;;5051901;28;20096;-69
2023/12/20 10:37:18;;;;;;;11.07;2.25;;;;;;;;;;5051985;28;20061;-69
2023/12/20 10:39:47;;;;;;;6.18;1.92;;;;;;;;;;5040635;28;20111;-68
2023/12/20 10:42:14;;;;;;;13.60;2.05;;;;;;;;;;5031804;28;20049;-69
2023/12/20 10:44:39;;;;;;;11.05;2.45;;;;;;;;;;5032048;28;20025;-69
2023/12/20 10:47:06;;;;;;;6.07;2.38;;;;;;;;;;5037037;28;20029;-69
2023/12/20 10:49:36;;;;;;;9.43;2.35;;;;;;;;;;5051981;28;20025;-68
2023/12/20 10:52:03;;;;;;;5.63;1.63;;;;;;;;;;5055655;28;20061;-69
2023/12/20 10:54:29;;;;;;;9.93;2.80;;;;;;;;;;5055567;28;20037;-68
2023/12/20 10:56:57;;;;;;;5.80;1.60;;;;;;;;;;5055324;28;20031;-68
2023/12/20 10:59:24;;;;;;;9.45;1.75;;;;;;;;;;5052646;28;20025;-68
2023/12/20 11:01:51;;;;;;;11.63;1.98;;;;;;;;;;5035521;28;20025;-68
2023/12/20 11:04:23;;;;;;;9.30;1.88;;;;;;;;;;5052783;28;20108;-68
2023/12/20 11:06:59;;;;;;;9.68;1.67;;;;;;;;;;5055400;28;20029;-68
2023/12/20 11:09:27;;;;;;;9.07;2.15;;;;;;;;;;5054902;28;20107;-68
2023/12/20 11:12:01;;;;;;;7.05;1.75;;;;;;;;;;5054986;28;20078;-68
2023/12/20 11:14:50;;;;;;;9.43;2.10;;;;;;;;;;5055112;28;20032;-68
2023/12/20 11:17:16;;;;;;;7.65;1.98;;;;;;;;;;5055195;28;20604;-68
2023/12/20 11:19:57;;;;;;;7.07;2.10;;;;;;;;;;5054976;28;20028;-68
2023/12/20 11:22:24;;;;;;;10.20;1.98;;;;;;;;;;5054496;28;20021;-68
2023/12/20 11:24:51;;;;;;;6.53;1.60;;;;;;;;;;5054720;28;20032;-68
2023/12/20 11:27:19;;;;;;;10.68;2.72;;;;;;;;;;5054747;28;20029;-69
2023/12/20 11:29:51;;;;;;;13.30;2.17;;;;;;;;;;5054816;28;20115;-69
2023/12/20 11:32:29;;;;;;;6.78;1.50;;;;;;;;;;5054745;28;20327;-69
2023/12/20 11:34:59;;;;;;;7.03;1.55;;;;;;;;;;5054822;28;20025;-69
2023/12/20 11:37:32;;;;;;;4.93;1.70;;;;;;;;;;5054855;28;20025;-69
2023/12/20 11:40:05;;;;;;;8.00;1.85;;;;;;;;;;5041363;28;20116;-68
2023/12/20 11:42:38;;;;;;;8.38;1.83;;;;;;;;;;5034809;28;20021;-68
2023/12/20 11:45:04;;;;;;;7.88;1.92;;;;;;;;;;5066483;28;20561;-68
2023/12/20 11:47:31;;;;;;;5.88;1.65;;;;;;;;;;5043154;28;20131;-68
2023/12/20 11:49:56;;;;;;;6.05;1.60;;;;;;;;;;5054153;28;20032;-69
2023/12/20 11:52:22;;;;;;;6.30;1.40;;;;;;;;;;5054469;28;20025;-68
2023/12/20 11:54:47;;;;;;;4.80;1.58;;;;;;;;;;5054139;28;20037;-68
2023/12/20 11:57:13;;;;;;;6.97;1.48;;;;;;;;;;5054396;28;20028;-69
2023/12/20 11:59:39;;;;;;;11.15;2.17;;;;;;;;;;5049206;28;20025;-69
2023/12/20 12:02:04;;;;;;;5.95;1.88;;;;;;;;;;5033870;28;20030;-69
2023/12/20 12:04:30;;;;;;;8.13;1.55;;;;;;;;;;5034349;28;20036;-69
2023/12/20 12:06:55;;;;;;;4.28;1.40;;;;;;;;;;5034308;28;20025;-69
2023/12/20 12:09:21;;;;;;;4.18;1.20;;;;;;;;;;5033881;28;20044;-69
2023/12/20 12:11:46;;;;;;;4.35;1.48;;;;;;;;;;5034864;28;20036;-68
2023/12/20 12:14:12;;;;;;;8.32;1.70;;;;;;;;;;5034535;28;20132;-69
2023/12/20 12:16:37;;;;;;;6.45;2.15;;;;;;;;;;5034146;28;20467;-68
2023/12/20 12:19:04;;;;;;;11.48;2.55;;;;;;;;;;5040420;28;20021;-68
2023/12/20 12:21:29;;;;;;;7.28;2.17;;;;;;;;;;5053919;28;20025;-68
2023/12/20 12:24:06;;;;;;;10.05;2.22;;;;;;;;;;5053577;28;20063;-69
2023/12/20 12:26:31;;;;;;;12.07;1.80;;;;;;;;;;5053550;28;20108;-68
2023/12/20 12:28:57;;;;;;;7.25;2.00;;;;;;;;;;5053684;28;20115;-68
2023/12/20 12:31:25;;;;;;;4.85;1.70;;;;;;;;;;5053607;28;20029;-69
2023/12/20 12:33:50;;;;;;;10.05;1.83;;;;;;;;;;5053620;28;20017;-69
2023/12/20 12:36:17;;;;;;;5.15;1.38;;;;;;;;;;5053670;28;20106;-69
2023/12/20 12:38:43;;;;;;;8.43;1.60;;;;;;;;;;5050461;28;20033;-68
2023/12/20 12:41:10;;;;;;;9.98;1.77;;;;;;;;;;5038859;28;20067;-69
2023/12/20 12:43:35;;;;;;;10.15;1.85;;;;;;;;;;5053595;28;20479;-68
2023/12/20 12:46:01;;;;;;;5.00;1.23;;;;;;;;;;5053310;28;20032;-68
2023/12/20 12:48:28;;;;;;;5.45;1.08;;;;;;;;;;5053256;28;20033;-68
2023/12/20 12:50:54;;;;;;;4.13;1.70;;;;;;;;;;5052939;28;20033;-68
2023/12/20 12:53:19;;;;;;;4.38;1.23;;;;;;;;;;5053026;28;20484;-68
2023/12/20 12:55:45;;;;;;;3.25;1.25;;;;;;;;;;5053295;28;20029;-68
2023/12/20 12:58:11;;;;;;;7.70;1.67;;;;;;;;;;5051746;28;20359;-68
2023/12/20 13:00:37;;;;;;;4.32;1.20;;;;;;;;;;5040323;28;20033;-68
2023/12/20 13:03:02;;;;;;;6.45;0.93;;;;;;;;;;5033365;28;20070;-68
2023/12/20 13:05:28;;;;;;;4.10;1.17;;;;;;;;;;5033329;28;20108;-68
2023/12/20 13:07:53;;;;;;;6.68;1.65;;;;;;;;;;5033001;28;20021;-68
2023/12/20 13:10:18;;;;;;;6.05;1.40;;;;;;;;;;5034011;28;20029;-68
2023/12/20 13:12:44;;;;;;;4.97;1.48;;;;;;;;;;5052238;28;20381;-69
2023/12/20 13:15:09;;;;;;;2.47;1.15;;;;;;;;;;5052805;28;20017;-69
2023/12/20 13:17:35;;;;;;;3.13;1.10;;;;;;;;;;5053007;28;20036;-68
2023/12/20 13:20:00;;;;;;;4.45;1.33;;;;;;;;;;5052873;28;20036;-69
2023/12/20 13:22:26;;;;;;;2.40;0.90;;;;;;;;;;5052641;28;20031;-68
2023/12/20 13:24:51;;;;;;;4.72;1.20;;;;;;;;;;5051435;28;20109;-68
2023/12/20 13:27:17;;;;;;;4.32;1.38;;;;;;;;;;5051828;28;20111;-68
2023/12/20 13:29:42;;;;;;;1.27;0.82;;;;;;;;;;5052464;28;20047;-68
2023/12/20 13:32:07;;;;;;;3.97;1.00;;;;;;;;;;5052422;28;20032;-68
2023/12/20 13:34:33;;;;;;;4.15;1.33;;;;;;;;;;5052694;28;20017;-68
2023/12/20 13:36:59;;;;;;;4.82;1.10;;;;;;;;;;5052183;28;20028;-68
2023/12/20 13:39:24;;;;;;;5.60;1.48;;;;;;;;;;5052197;28;20040;-68
2023/12/20 13:41:49;;;;;;;3.97;1.70;;;;;;;;;;5052290;28;20025;-69
2023/12/20 13:44:15;;;;;;;5.25;1.42;;;;;;;;;;5052589;28;20462;-69
2023/12/20 13:46:41;;;;;;;6.15;3.20;;;;;;;;;;5052069;28;20083;-69
2023/12/20 13:49:07;;;;;;;5.05;1.92;;;;;;;;;;5052455;28;20025;-68
2023/12/20 13:51:32;;;;;;;2.90;0.90;;;;;;;;;;5052240;28;20411;-68
2023/12/20 13:53:57;;;;;;;1.52;1.20;;;;;;;;;;5052136;28;20128;-70
2023/12/20 13:56:23;;;;;;;2.08;0.95;;;;;;;;;;5051234;28;20104;-68
2023/12/20 13:58:49;;;;;;;1.65;0.85;;;;;;;;;;5052428;28;20474;-68
2023/12/20 14:01:15;;;;;;;5.70;2.20;;;;;;;;;;5051493;28;20078;-68
2023/12/20 14:03:41;;;;;;;2.28;1.17;;;;;;;;;;5052325;28;20112;-68
2023/12/20 14:06:06;;;;;;;7.75;1.67;;;;;;;;;;5052120;28;20036;-68
2023/12/20 14:08:32;;;;;;;2.22;1.38;;;;;;;;;;5052240;28;20025;-68
2023/12/20 14:10:57;;;;;;;2.58;1.25;;;;;;;;;;5052129;28;20150;-68
2023/12/20 14:13:23;;;;;;;2.35;1.27;;;;;;;;;;5051966;28;20028;-68
2023/12/20 14:15:49;;;;;;;4.13;2.17;;;;;;;;;;5052119;28;20021;-69
2023/12/20 14:18:15;;;;;;;6.57;2.67;;;;;;;;;;5049967;28;20020;-68
2023/12/20 14:20:42;;;;;;;3.53;1.92;;;;;;;;;;5051901;28;20036;-68
2023/12/20 14:23:09;;;;;;;3.05;1.23;;;;;;;;;;5052086;28;20064;-68
2023/12/20 14:25:36;;;;;;;3.08;1.27;;;;;;;;;;5054779;28;20430;-68
2023/12/20 14:28:03;;;;;;;5.47;2.70;;;;;;;;;;5056069;28;20086;-69
2023/12/20 14:30:28;;;;;;;3.90;1.23;;;;;;;;;;5056007;28;20029;-68
2023/12/20 14:32:54;;;;;;;4.15;1.90;;;;;;;;;;5055876;28;20147;-68
2023/12/20 14:35:19;;;;;;;9.25;4.28;;;;;;;;;;5055882;28;20033;-68